Time;durP1;ratioP1;P1;durP2;ratioP2;P2;SDS_P1;SDS_P2;PMS_P1;PMS_P2;Temp;Humidity;BMP_temperature;BMP_pressure;BME280_temperature;BME280_humidity;BME280_pressure;Samples;Min_cycle;Max_cycle;Signal;HPM_P1;HPM_P2
2022/12/22 03:27:35;;;;;;;19.05;14.20;;;;;;;8.34;100.00;100288.69;6249605;22;20020;-76
2022/12/22 03:30:02;;;;;;;18.63;13.77;;;;;;;8.34;100.00;100287.97;6250631;22;20020;-76
2022/12/22 03:32:29;;;;;;;21.25;14.68;;;;;;;8.35;100.00;100282.22;6249950;22;20098;-77
2022/12/22 03:34:55;;;;;;;20.92;14.60;;;;;;;8.37;100.00;100281.06;6250768;22;20435;-76
2022/12/22 03:37:22;;;;;;;25.88;16.23;;;;;;;8.36;100.00;100285.63;6250506;22;20039;-76
2022/12/22 03:39:48;;;;;;;21.33;14.95;;;;;;;8.36;100.00;100280.31;6250591;22;20450;-76
2022/12/22 03:47:44;;;;;;;25.20;16.60;;;;;;;8.36;100.00;100275.00;6250396;22;20016;-76
2022/12/22 03:50:11;;;;;;;24.23;15.15;;;;;;;8.37;100.00;100281.06;6250865;22;20013;-76
2022/12/22 03:52:38;;;;;;;25.58;16.08;;;;;;;8.38;100.00;100277.97;6250103;22;20427;-75
2022/12/22 03:55:05;;;;;;;28.38;17.52;;;;;;;8.38;100.00;100274.56;6250736;22;20013;-75
2022/12/22 03:57:31;;;;;;;24.05;15.60;;;;;;;8.39;100.00;100270.75;6249750;22;20016;-75
2022/12/22 03:59:58;;;;;;;23.10;15.57;;;;;;;8.40;100.00;100264.97;6223984;22;20455;-75
2022/12/22 04:02:24;;;;;;;30.05;16.23;;;;;;;8.41;100.00;100268.38;6250502;22;20047;-75
2022/12/22 04:04:51;;;;;;;23.75;16.17;;;;;;;8.40;100.00;100269.56;6250808;22;20438;-75
2022/12/22 04:07:17;;;;;;;27.98;17.00;;;;;;;8.41;100.00;100269.13;6250479;22;20020;-75
2022/12/22 04:12:53;;;;;;;27.52;15.48;;;;;;;8.42;100.00;100265.28;6223082;22;20493;-74
2022/12/22 04:15:15;;;;;;;32.85;16.88;;;;;;;8.41;100.00;100271.75;6250363;22;20013;-74
2022/12/22 04:17:42;;;;;;;30.73;16.85;;;;;;;8.41;100.00;100271.75;6250023;22;20017;-74
2022/12/22 04:20:09;;;;;;;31.95;17.08;;;;;;;8.42;100.00;100264.56;6250832;22;20438;-74
2022/12/22 04:22:35;;;;;;;30.98;15.98;;;;;;;8.42;100.00;100269.84;6250337;22;20450;-74
2022/12/22 04:25:02;;;;;;;34.22;17.35;;;;;;;8.43;100.00;100274.00;6250436;22;20454;-74
2022/12/22 04:27:29;;;;;;;29.25;17.58;;;;;;;8.41;100.00;100273.69;6249737;22;20017;-74
2022/12/22 04:29:55;;;;;;;29.50;17.20;;;;;;;8.41;100.00;100274.41;6250669;22;20013;-74
2022/12/22 04:32:22;;;;;;;29.15;16.67;;;;;;;8.43;100.00;100288.00;6250146;22;20020;-74
2022/12/22 04:34:48;;;;;;;34.70;17.63;;;;;;;8.41;100.00;100279.72;6250746;22;20019;-75
2022/12/22 04:37:15;;;;;;;25.92;15.50;;;;;;;8.41;100.00;100287.69;6251373;22;20017;-74
2022/12/22 04:39:43;;;;;;;26.90;16.33;;;;;;;8.40;100.00;100291.50;6250877;22;20012;-75
2022/12/22 04:42:10;;;;;;;32.42;17.20;;;;;;;8.40;100.00;100283.56;6251912;22;20443;-74
2022/12/22 04:44:37;;;;;;;31.42;16.92;;;;;;;8.42;100.00;100293.72;6251199;22;20016;-74
2022/12/22 04:47:03;;;;;;;26.17;16.20;;;;;;;8.42;100.00;100291.06;6251776;22;20023;-75
2022/12/22 04:49:30;;;;;;;30.42;16.25;;;;;;;8.44;100.00;100296.69;6251555;22;20449;-74
2022/12/22 04:51:57;;;;;;;28.50;15.52;;;;;;;8.43;100.00;100300.50;6251697;22;20024;-75
2022/12/22 04:54:24;;;;;;;27.77;16.30;;;;;;;8.44;100.00;100296.69;6250535;22;20017;-74
2022/12/22 04:56:51;;;;;;;27.75;15.32;;;;;;;8.43;100.00;100295.22;6251799;22;20023;-76
2022/12/22 04:59:17;;;;;;;26.95;14.98;;;;;;;8.43;100.00;100290.63;6251561;22;20013;-74
2022/12/22 05:01:44;;;;;;;24.25;15.25;;;;;;;8.43;100.00;100287.25;6251394;22;20016;-74
2022/12/22 05:04:11;;;;;;;26.38;15.20;;;;;;;8.43;100.00;100292.56;6251593;22;20346;-75
2022/12/22 05:06:37;;;;;;;24.65;15.27;;;;;;;8.41;100.00;100287.69;6251217;22;20040;-74
2022/12/22 05:09:03;;;;;;;24.80;15.27;;;;;;;8.40;100.00;100278.25;6224161;22;20406;-75
2022/12/22 05:11:30;;;;;;;23.60;14.68;;;;;;;8.40;100.00;100286.19;6251405;22;20048;-74
2022/12/22 05:13:57;;;;;;;23.50;14.82;;;;;;;8.39;100.00;100290.06;6224251;22;20031;-75
2022/12/22 05:16:32;;;;;;;25.83;15.02;;;;;;;8.39;100.00;100284.00;6251053;22;20021;-74
2022/12/22 05:18:58;;;;;;;26.50;14.55;;;;;;;8.40;100.00;100291.50;6251707;22;20472;-74
2022/12/22 05:21:25;;;;;;;28.73;15.75;;;;;;;8.39;100.00;100284.00;6251170;22;20012;-74
2022/12/22 05:23:52;;;;;;;22.00;13.68;;;;;;;8.40;100.00;100288.84;6250962;22;20012;-75
2022/12/22 05:26:19;;;;;;;24.58;13.95;;;;;;;8.40;100.00;100296.81;6251422;22;20000;-74
2022/12/22 05:28:46;;;;;;;25.20;14.02;;;;;;;8.40;100.00;100298.75;6251594;22;20019;-75
2022/12/22 05:31:21;;;;;;;24.65;14.77;;;;;;;8.40;100.00;100304.78;6224731;22;20017;-75
2022/12/22 05:33:48;;;;;;;24.90;14.65;;;;;;;8.39;100.00;100305.97;6251602;22;20021;-75
2022/12/22 05:36:15;;;;;;;27.35;14.15;;;;;;;8.36;100.00;100306.84;6251554;22;20083;-75
2022/12/22 05:38:43;;;;;;;24.98;14.68;;;;;;;8.35;100.00;100306.09;6250635;22;20023;-75
2022/12/22 05:41:10;;;;;;;22.33;14.35;;;;;;;8.36;100.00;100306.84;6251881;22;20056;-75
2022/12/22 05:43:36;;;;;;;22.88;14.00;;;;;;;8.35;100.00;100316.72;6252110;22;20401;-75
2022/12/22 05:46:06;;;;;;;25.95;14.43;;;;;;;8.36;100.00;100322.75;6251798;22;20027;-74
2022/12/22 05:48:34;;;;;;;20.33;13.45;;;;;;;8.37;100.00;100326.88;6251850;22;20067;-76
2022/12/22 05:51:06;;;;;;;19.50;13.27;;;;;;;8.37;100.00;100336.75;6252206;22;20017;-74
2022/12/22 05:53:33;;;;;;;21.13;11.95;;;;;;;8.38;100.00;100332.94;6251463;22;20075;-74
2022/12/22 05:55:59;;;;;;;22.88;12.95;;;;;;;8.37;100.00;100340.16;6251823;22;20103;-76
2022/12/22 05:58:26;;;;;;;18.25;11.68;;;;;;;8.37;100.00;100342.06;6252051;22;20016;-74
2022/12/22 06:00:56;;;;;;;18.05;11.38;;;;;;;8.37;100.00;100350.75;6252009;22;20020;-74
2022/12/22 06:03:27;;;;;;;17.90;11.60;;;;;;;8.38;100.00;100340.88;6249920;22;20531;-74
2022/12/22 06:05:54;;;;;;;18.75;11.25;;;;;;;8.37;100.00;100342.78;6252295;22;20020;-75
2022/12/22 06:08:21;;;;;;;14.02;10.10;;;;;;;8.37;100.00;100350.00;6251529;22;20111;-74
2022/12/22 06:10:48;;;;;;;18.77;10.98;;;;;;;8.38;100.00;100348.84;6252250;22;20472;-73
2022/12/22 06:13:14;;;;;;;16.88;11.15;;;;;;;8.36;100.00;100346.63;6252001;22;20027;-74
2022/12/22 06:15:41;;;;;;;19.80;11.13;;;;;;;8.36;100.00;100338.66;6251983;22;20489;-74
2022/12/22 06:18:08;;;;;;;20.25;11.73;;;;;;;8.34;100.00;100333.78;6251761;22;20023;-75
2022/12/22 06:20:34;;;;;;;18.88;11.85;;;;;;;8.32;100.00;100324.75;6252252;22;20017;-74
2022/12/22 06:23:01;;;;;;;19.25;11.57;;;;;;;8.29;100.00;100315.75;6251477;22;20016;-75
2022/12/22 06:25:27;;;;;;;16.67;10.63;;;;;;;8.27;100.00;100328.72;6251985;22;20087;-75
2022/12/22 06:27:54;;;;;;;19.60;12.63;;;;;;;8.24;100.00;100326.91;6251799;22;20013;-75
2022/12/22 06:30:20;;;;;;;20.50;12.23;;;;;;;8.22;100.00;100326.59;6251846;22;20403;-75
2022/12/22 06:32:54;;;;;;;21.05;12.70;;;;;;;8.21;100.00;100332.34;6251829;22;20413;-75
2022/12/22 06:35:21;;;;;;;20.52;13.10;;;;;;;8.19;100.00;100340.72;6251865;22;20091;-75
2022/12/22 06:37:47;;;;;;;26.20;13.15;;;;;;;8.19;100.00;100351.34;6251374;22;20016;-75
2022/12/22 06:40:14;;;;;;;23.15;13.23;;;;;;;8.18;100.00;100354.41;6251611;22;20442;-75
2022/12/22 06:45:39;;;;;;;29.63;14.23;;;;;;;8.16;100.00;100368.09;6252000;22;20095;-75
2022/12/22 06:48:06;;;;;;;;;;;;;;;8.15;100.00;100368.53;6225485;22;20017;-75
2022/12/22 06:50:32;;;;;;;23.10;12.80;;;;;;;8.13;100.00;100373.53;6251384;22;19919;-75
2022/12/22 06:52:59;;;;;;;28.70;14.05;;;;;;;8.12;100.00;100387.94;6250158;22;20024;-75
2022/12/22 06:55:26;;;;;;;33.05;15.23;;;;;;;8.07;100.00;100388.50;6250484;22;20028;-76
2022/12/22 06:57:53;;;;;;;28.05;13.95;;;;;;;8.04;100.00;100395.41;6249956;22;20046;-76
2022/12/22 07:00:20;;;;;;;31.35;14.55;;;;;;;8.05;100.00;100402.19;6250855;22;20012;-75
2022/12/22 07:02:46;;;;;;;38.00;15.98;;;;;;;8.01;100.00;100396.25;6223622;22;20452;-76
2022/12/22 07:05:14;;;;;;;24.70;12.55;;;;;;;7.98;100.00;100408.47;6250353;22;20020;-75
2022/12/22 07:07:41;;;;;;;27.90;13.70;;;;;;;7.95;100.00;100417.28;6251281;22;20020;-76
2022/12/22 07:10:08;;;;;;;22.58;13.23;;;;;;;7.93;100.00;100409.03;6251403;22;20071;-75
2022/12/22 07:12:34;;;;;;;24.23;13.45;;;;;;;7.94;100.00;100417.72;6251230;22;20096;-76
2022/12/22 07:15:01;;;;;;;29.73;14.13;;;;;;;7.93;100.00;100426.84;6251356;22;20161;-76
2022/12/22 07:17:27;;;;;;;30.15;15.00;;;;;;;7.94;100.00;100430.97;6251404;22;20068;-76
2022/12/22 07:19:54;;;;;;;30.25;14.60;;;;;;;7.92;100.00;100420.78;6250719;22;20016;-75
2022/12/22 07:22:21;;;;;;;34.28;15.57;;;;;;;7.91;100.00;100435.22;6251299;22;20093;-76
2022/12/22 07:24:55;;;;;;;34.10;14.70;;;;;;;7.89;100.00;100445.50;6251392;22;20028;-76
2022/12/22 07:27:22;;;;;;;29.40;14.55;;;;;;;7.83;100.00;100438.50;6251476;22;20120;-77
2022/12/22 07:29:48;;;;;;;29.40;13.27;;;;;;;7.80;100.00;100426.84;6224225;22;20473;-77
2022/12/22 07:32:15;;;;;;;31.73;13.00;;;;;;;7.77;100.00;100443.59;6251346;22;20411;-77
2022/12/22 07:34:41;;;;;;;28.23;13.27;;;;;;;7.76;100.00;100442.13;6250943;22;20477;-76
2022/12/22 07:37:08;;;;;;;23.88;11.25;;;;;;;7.74;100.00;100443.72;6250235;22;20435;-77
2022/12/22 07:39:34;;;;;;;24.35;11.57;;;;;;;7.70;100.00;100455.16;6250767;22;20021;-76
2022/12/22 07:44:46;;;;;;;21.95;11.00;;;;;;;7.64;100.00;100459.50;6251418;22;20017;-77
2022/12/22 07:47:12;;;;;;;24.38;11.60;;;;;;;7.60;100.00;100455.50;6251258;22;20021;-77
2022/12/22 07:52:24;;;;;;;26.45;11.68;;;;;;;7.58;100.00;100461.25;6250984;22;20020;-77
2022/12/22 07:54:50;;;;;;;30.73;12.05;;;;;;;7.57;100.00;100465.06;6251329;22;20020;-77
2022/12/22 07:57:17;;;;;;;25.48;11.77;;;;;;;7.56;100.00;100470.78;6224569;22;20113;-77
2022/12/22 07:59:43;;;;;;;24.92;11.65;;;;;;;7.57;100.00;100470.34;6224443;22;20067;-78
2022/12/22 08:02:11;;;;;;;29.25;12.27;;;;;;;7.59;100.00;100477.88;6251273;22;20493;-83
2022/12/22 08:04:37;;;;;;;26.58;11.50;;;;;;;7.59;100.00;100491.13;6250649;22;20023;-79
2022/12/22 08:07:04;;;;;;;28.48;13.00;;;;;;;7.58;100.00;100487.72;6224487;22;20426;-79
2022/12/22 08:09:31;;;;;;;27.17;12.07;;;;;;;7.57;100.00;100494.19;6224209;22;20017;-78
2022/12/22 08:11:57;;;;;;;30.58;11.43;;;;;;;7.55;100.00;100485.94;6250373;22;20017;-77
2022/12/22 08:14:24;;;;;;;24.27;11.35;;;;;;;7.51;100.00;100495.88;6224184;22;20024;-77
2022/12/22 08:16:50;;;;;;;21.50;9.70;;;;;;;7.50;100.00;100494.41;6251090;22;20055;-77
2022/12/22 08:19:17;;;;;;;23.48;10.80;;;;;;;7.47;100.00;100508.47;6250692;22;20059;-79
2022/12/22 08:21:43;;;;;;;24.10;10.38;;;;;;;7.44;100.00;100500.63;6250666;22;20024;-78
2022/12/22 08:24:18;;;;;;;22.65;9.73;;;;;;;7.37;100.00;100504.22;6251100;22;20435;-79
2022/12/22 08:26:48;;;;;;;21.08;10.15;;;;;;;7.35;100.00;100509.22;6224375;22;20017;-78
2022/12/22 08:29:38;;;;;;;21.42;10.30;;;;;;;7.31;100.00;100509.31;6224358;22;20024;-77
2022/12/22 08:32:05;;;;;;;21.17;10.15;;;;;;;7.29;100.00;100521.47;6250313;22;20036;-77
2022/12/22 08:34:32;;;;;;;19.95;9.65;;;;;;;7.25;100.00;100521.59;6250711;22;20020;-77
2022/12/22 08:37:00;;;;;;;18.00;9.52;;;;;;;7.22;100.00;100530.38;6222312;22;20020;-77
2022/12/22 08:39:31;;;;;;;19.67;9.10;;;;;;;7.18;100.00;100535.03;6250121;22;20043;-78
2022/12/22 08:41:59;;;;;;;19.45;9.15;;;;;;;7.13;100.00;100545.41;6250764;22;20019;-77
2022/12/22 08:44:28;;;;;;;20.23;9.07;;;;;;;7.08;100.00;100551.94;6250458;22;20021;-77
2022/12/22 08:46:56;;;;;;;25.85;8.90;;;;;;;7.05;100.00;100542.19;6250148;22;20324;-77
2022/12/22 08:49:24;;;;;;;22.45;9.23;;;;;;;7.01;100.00;100549.50;6250404;22;20067;-77
2022/12/22 08:51:52;;;;;;;25.23;9.15;;;;;;;6.97;100.00;100559.44;6250676;22;20017;-77
2022/12/22 08:54:18;;;;;;;21.67;9.10;;;;;;;6.94;100.00;100568.19;6250353;22;20032;-77
2022/12/22 08:56:46;;;;;;;21.17;8.60;;;;;;;6.90;100.00;100575.47;6250714;22;20469;-77
2022/12/22 08:59:13;;;;;;;24.30;8.95;;;;;;;6.83;100.00;100581.69;6250453;22;20031;-77
2022/12/22 09:01:42;;;;;;;20.58;8.82;;;;;;;6.79;100.00;100585.63;6249989;22;20410;-77
2022/12/22 09:04:14;;;;;;;22.40;8.52;;;;;;;6.73;100.00;100585.38;6224127;22;20017;-78
2022/12/22 09:06:41;;;;;;;16.60;7.55;;;;;;;6.70;100.00;100583.56;6223638;22;20020;-78
2022/12/22 09:09:09;;;;;;;18.38;8.52;;;;;;;6.67;100.00;100576.44;6223692;22;20017;-77
2022/12/22 09:11:37;;;;;;;18.58;8.02;;;;;;;6.67;100.00;100587.78;6250454;22;20016;-78
2022/12/22 09:14:04;;;;;;;20.08;7.82;;;;;;;6.72;100.00;100586.53;6250056;22;20028;-77
2022/12/22 09:16:32;;;;;;;18.77;8.20;;;;;;;6.76;100.00;100591.75;6249921;22;20024;-76
2022/12/22 09:18:59;;;;;;;17.42;7.60;;;;;;;6.78;100.00;100598.09;6250151;22;20013;-76
2022/12/22 09:21:27;;;;;;;21.33;9.27;;;;;;;6.82;100.00;100597.97;6250379;22;20987;-76
2022/12/22 09:23:54;;;;;;;142.52;39.60;;;;;;;6.86;100.00;100607.31;6250809;22;20497;-76
2022/12/22 09:26:22;;;;;;;38.80;12.80;;;;;;;6.91;100.00;100614.75;6224900;22;20016;-76
2022/12/22 09:28:49;;;;;;;20.98;8.77;;;;;;;6.97;100.00;100615.00;6251899;22;20017;-77
2022/12/22 09:31:18;;;;;;;21.10;7.80;;;;;;;7.02;100.00;100617.88;6251175;22;20020;-76
2022/12/22 09:33:45;;;;;;;19.38;8.05;;;;;;;7.06;100.00;100625.00;6251757;22;20024;-77
2022/12/22 09:36:14;;;;;;;16.95;7.57;;;;;;;7.09;100.00;100624.91;6250580;22;20413;-78
2022/12/22 09:38:41;;;;;;;16.60;7.10;;;;;;;7.13;100.00;100619.53;6251845;22;20020;-76
2022/12/22 09:41:08;;;;;;;14.55;7.05;;;;;;;7.14;100.00;100605.88;6224391;22;20016;-78
2022/12/22 09:43:34;;;;;;;14.10;7.00;;;;;;;7.21;100.00;100610.22;6250711;22;20061;-77
2022/12/22 09:46:01;;;;;;;16.02;7.03;;;;;;;7.28;100.00;100615.31;6250693;22;20017;-80
2022/12/22 09:48:36;;;;;;;18.02;7.10;;;;;;;7.31;100.00;100622.44;6251657;22;20469;-77
2022/12/22 09:51:03;;;;;;;11.73;7.13;;;;;;;7.38;100.00;100632.09;6251891;22;20502;-76
2022/12/22 09:53:31;;;;;;;13.95;6.65;;;;;;;7.44;100.00;100630.41;6224263;22;20104;-77
2022/12/22 09:55:57;;;;;;;15.68;6.82;;;;;;;7.44;100.00;100633.81;6224692;22;20017;-76
2022/12/22 09:58:33;;;;;;;17.90;7.60;;;;;;;7.48;100.00;100636.38;6251923;22;20024;-79
2022/12/22 10:01:26;;;;;;;13.98;6.85;;;;;;;7.55;100.00;100639.56;6251062;22;20027;-80
2022/12/22 10:04:21;;;;;;;10.98;6.95;;;;;;;7.55;100.00;100642.22;6224736;22;20366;-79
2022/12/22 10:07:01;;;;;;;13.80;7.10;;;;;;;7.54;100.00;100643.38;6251916;22;20012;-79
2022/12/22 10:09:30;;;;;;;13.50;6.22;;;;;;;7.56;100.00;100645.59;6251580;22;20012;-78
2022/12/22 10:12:21;;;;;;;12.85;6.53;;;;;;;7.52;100.00;100651.00;6250571;22;20013;-79
2022/12/22 10:14:49;;;;;;;13.30;6.57;;;;;;;7.55;100.00;100652.81;6250944;22;20024;-79
2022/12/22 10:17:31;;;;;;;12.05;6.53;;;;;;;7.61;100.00;100647.72;6224071;22;20016;-79
2022/12/22 10:20:19;;;;;;;10.13;6.03;;;;;;;7.66;100.00;100645.28;6251843;22;20558;-78
2022/12/22 10:23:00;;;;;;;8.95;5.95;;;;;;;7.66;100.00;100650.59;6224666;22;20733;-78
2022/12/22 10:25:36;;;;;;;14.05;6.30;;;;;;;7.68;100.00;100644.88;6224399;22;20504;-79
2022/12/22 10:28:40;;;;;;;9.45;5.93;;;;;;;7.65;100.00;100648.38;6251133;22;20016;-79
2022/12/22 10:31:28;;;;;;;11.38;5.93;;;;;;;7.67;100.00;100646.78;6251768;22;20033;-79
2022/12/22 10:34:16;;;;;;;11.13;5.70;;;;;;;7.67;100.00;100635.44;6251278;22;20071;-79
2022/12/22 10:36:49;;;;;;;12.57;6.00;;;;;;;7.71;100.00;100638.72;6241334;22;20091;-79
2022/12/22 10:39:22;;;;;;;9.25;6.53;;;;;;;7.78;100.00;100649.13;6251018;22;20013;-79
2022/12/22 10:41:50;;;;;;;13.48;7.03;;;;;;;7.80;100.00;100654.75;6249999;22;20021;-79
2022/12/22 10:44:17;;;;;;;10.95;6.18;;;;;;;7.87;100.00;100651.16;6250975;22;20016;-79
2022/12/22 10:46:47;;;;;;;12.57;6.60;;;;;;;7.85;100.00;100656.16;6251420;22;20021;-78
2022/12/22 10:49:23;;;;;;;11.38;7.25;;;;;;;7.89;100.00;100657.53;6251349;22;20458;-79
2022/12/22 10:52:07;;;;;;;9.35;6.10;;;;;;;7.94;100.00;100657.00;6251678;22;20024;-79
2022/12/22 10:54:41;;;;;;;8.90;6.85;;;;;;;7.96;100.00;100653.94;6251231;22;20052;-79
2022/12/22 10:57:13;;;;;;;9.38;6.50;;;;;;;7.96;100.00;100664.53;6224185;22;20071;-79
2022/12/22 11:00:30;;;;;;;11.55;7.35;;;;;;;7.96;100.00;100664.53;6251497;22;20032;-79
2022/12/22 11:02:58;;;;;;;10.20;6.82;;;;;;;7.90;100.00;100666.22;6230843;22;20020;-79
2022/12/22 11:05:26;;;;;;;12.60;7.03;;;;;;;7.88;100.00;100661.34;6224141;22;20178;-79
2022/12/22 11:07:53;;;;;;;11.32;7.82;;;;;;;7.85;100.00;100654.25;6224418;22;20387;-77
2022/12/22 11:10:27;;;;;;;10.15;7.53;;;;;;;7.83;100.00;100669.81;6251533;22;20736;-82
2022/12/22 11:13:13;;;;;;;10.32;7.15;;;;;;;7.84;100.00;100666.00;6251116;22;20012;-77
2022/12/22 11:16:30;;;;;;;14.20;7.50;;;;;;;7.84;100.00;100667.91;6250905;22;20017;-76
2022/12/22 11:19:10;;;;;;;13.90;7.13;;;;;;;7.86;100.00;100661.03;6223513;22;20028;-76
2022/12/22 11:21:49;;;;;;;13.75;6.97;;;;;;;7.89;100.00;100675.34;6250809;22;20020;-77
2022/12/22 11:24:37;;;;;;;12.45;7.88;;;;;;;7.88;100.00;100676.50;6251465;22;20039;-78
2022/12/22 11:27:26;;;;;;;16.30;7.93;;;;;;;7.90;100.00;100668.88;6251227;22;20023;-78
2022/12/22 11:30:03;;;;;;;11.82;8.18;;;;;;;7.94;100.00;100678.22;6249721;22;20096;-77
2022/12/22 11:32:48;;;;;;;14.40;7.78;;;;;;;7.97;100.00;100671.34;6224656;22;20040;-78
2022/12/22 11:35:50;;;;;;;13.75;8.60;;;;;;;7.97;100.00;100676.63;6251137;22;20505;-80
2022/12/22 11:38:31;;;;;;;15.35;9.20;;;;;;;7.98;100.00;100678.13;6224353;22;20025;-79
2022/12/22 11:41:07;;;;;;;15.68;8.60;;;;;;;7.99;100.00;100675.06;6250118;22;20021;-77
2022/12/22 11:43:36;;;;;;;15.10;9.07;;;;;;;8.00;100.00;100681.06;6251322;22;20036;-79
2022/12/22 11:46:30;;;;;;;15.07;8.70;;;;;;;8.03;100.00;100670.38;6223490;22;20458;-79
2022/12/22 11:49:19;;;;;;;21.73;8.73;;;;;;;8.05;100.00;100672.59;6223837;22;20028;-79
2022/12/22 11:52:07;;;;;;;12.93;8.43;;;;;;;8.07;100.00;100672.91;6224577;22;20023;-79
2022/12/22 11:54:45;;;;;;;13.20;8.55;;;;;;;8.12;100.00;100679.59;6251345;22;20021;-80
2022/12/22 11:57:50;;;;;;;10.80;7.95;;;;;;;8.13;100.00;100665.91;6249325;22;20017;-79
2022/12/22 12:00:18;;;;;;;20.52;8.00;;;;;;;8.16;100.00;100661.69;6251127;22;20013;-79
2022/12/22 12:02:56;;;;;;;11.00;6.88;;;;;;;8.16;100.00;100659.03;6223786;22;20021;-77
2022/12/22 12:05:29;;;;;;;15.13;6.43;;;;;;;8.17;100.00;100665.81;6250944;22;20012;-78
2022/12/22 12:08:12;;;;;;;17.10;11.35;;;;;;;8.18;100.00;100659.34;6250984;22;20013;-78
2022/12/22 12:10:50;;;;;;;10.23;5.53;;;;;;;8.20;100.00;100665.72;6250484;22;20476;-78
2022/12/22 12:13:32;;;;;;;8.32;5.15;;;;;;;8.19;100.00;100661.56;6251060;22;20040;-78
2022/12/22 12:16:17;;;;;;;10.20;4.75;;;;;;;8.23;100.00;100667.53;6223994;22;20020;-78
2022/12/22 12:19:08;;;;;;;7.15;4.90;;;;;;;8.31;100.00;100668.06;6250856;22;20052;-77
2022/12/22 12:21:50;;;;;;;11.15;4.72;;;;;;;8.35;100.00;100663.41;6249858;22;20013;-76
2022/12/22 12:24:29;;;;;;;11.20;4.90;;;;;;;8.34;100.00;100662.69;6250300;22;20391;-77
2022/12/22 12:27:11;;;;;;;4.88;4.07;;;;;;;8.33;100.00;100665.75;6224134;22;20048;-77
2022/12/22 12:30:22;;;;;;;8.77;4.55;;;;;;;8.37;100.00;100665.66;6250952;22;20019;-78
2022/12/22 12:33:23;;;;;;;9.07;4.57;;;;;;;8.37;100.00;100661.09;6215749;22;20104;-76
2022/12/22 12:36:13;;;;;;;9.57;5.40;;;;;;;8.41;100.00;100666.25;6252252;22;20020;-76
2022/12/22 12:39:13;;;;;;;12.05;6.82;;;;;;;8.40;100.00;100659.50;6250409;22;20440;-76
2022/12/22 12:41:50;;;;;;;10.55;7.03;;;;;;;8.42;100.00;100665.09;6250912;22;20044;-76
2022/12/22 12:44:19;;;;;;;13.73;8.13;;;;;;;8.34;100.00;100670.63;6223410;22;20062;-76
2022/12/22 12:46:49;;;;;;;16.00;9.15;;;;;;;8.20;100.00;100655.09;6248762;22;20075;-76
2022/12/22 12:49:34;;;;;;;19.33;10.57;;;;;;;8.08;100.00;100647.88;6198023;22;20057;-77
2022/12/22 12:52:01;;;;;;;14.02;10.10;;;;;;;8.03;100.00;100649.16;6250807;22;20027;-76
2022/12/22 12:54:28;;;;;;;19.10;11.32;;;;;;;8.01;100.00;100648.09;6249888;22;20024;-77
2022/12/22 12:57:00;;;;;;;17.50;10.98;;;;;;;7.90;100.00;100653.72;6250882;22;20019;-77
2022/12/22 12:59:38;;;;;;;20.05;12.48;;;;;;;7.81;100.00;100655.50;6251787;22;20016;-77
2022/12/22 13:02:27;;;;;;;22.80;13.18;;;;;;;7.69;100.00;100673.59;6252083;22;20023;-76
2022/12/22 13:05:30;;;;;;;26.40;13.38;;;;;;;7.55;100.00;100673.25;6224751;22;20540;-76
2022/12/22 13:08:07;;;;;;;22.55;12.35;;;;;;;7.45;100.00;100679.59;6249954;22;20438;-77
2022/12/22 13:10:40;;;;;;;24.63;12.82;;;;;;;7.37;100.00;100681.66;6250074;22;20021;-76
2022/12/22 13:13:20;;;;;;;20.48;11.45;;;;;;;7.33;100.00;100686.31;6251800;22;20435;-76
2022/12/22 13:15:49;;;;;;;20.70;12.18;;;;;;;7.30;100.00;100681.84;6251803;22;20017;-76
2022/12/22 13:18:24;;;;;;;18.15;11.00;;;;;;;7.28;100.00;100686.81;6225121;22;20023;-76
2022/12/22 13:20:57;;;;;;;22.05;11.25;;;;;;;7.26;100.00;100686.50;6225315;22;20017;-75
2022/12/22 13:23:55;;;;;;;20.95;11.85;;;;;;;7.25;100.00;100685.00;6229014;22;20072;-76
2022/12/22 13:26:43;;;;;;;21.05;11.60;;;;;;;7.20;100.00;100698.75;6252053;22;20339;-75
2022/12/22 13:29:24;;;;;;;18.45;11.00;;;;;;;7.17;100.00;100695.06;6251875;22;20075;-75
2022/12/22 13:31:57;;;;;;;17.33;10.50;;;;;;;7.08;100.00;100702.84;6251928;22;20083;-76
2022/12/22 13:34:39;;;;;;;20.67;11.90;;;;;;;7.03;100.00;100701.44;6251781;22;20427;-75
2022/12/22 13:37:27;;;;;;;21.67;11.40;;;;;;;7.08;100.00;100691.50;6224148;22;20481;-76
2022/12/22 13:40:15;;;;;;;23.42;11.77;;;;;;;7.07;100.00;100684.72;6251613;22;20027;-76
2022/12/22 13:42:46;;;;;;;20.08;11.82;;;;;;;7.07;100.00;100671.47;6251840;22;20019;-76
2022/12/22 13:45:33;;;;;;;23.67;11.67;;;;;;;7.06;100.00;100670.75;6224714;22;20017;-76
2022/12/22 13:48:04;;;;;;;24.70;12.75;;;;;;;7.09;100.00;100669.16;6251937;22;20017;-76
2022/12/22 13:50:35;;;;;;;23.73;12.80;;;;;;;7.11;100.00;100672.13;6252033;22;20020;-77
2022/12/22 13:53:04;;;;;;;23.60;12.75;;;;;;;7.13;100.00;100664.53;6251079;22;20017;-75
2022/12/22 13:55:31;;;;;;;23.58;12.65;;;;;;;7.14;100.00;100650.13;6251524;22;20115;-78
2022/12/22 13:58:26;;;;;;;22.92;13.27;;;;;;;7.21;100.00;100657.88;6224541;22;20017;-78
2022/12/22 14:01:01;;;;;;;26.85;13.82;;;;;;;7.21;100.00;100655.22;6224308;22;20466;-78
2022/12/22 14:03:27;;;;;;;25.45;12.55;;;;;;;7.21;100.00;100645.38;6224772;22;20013;-78
2022/12/22 14:06:40;;;;;;;24.13;13.52;;;;;;;7.24;100.00;100638.50;6251109;22;20017;-78
2022/12/22 14:09:19;;;;;;;24.92;12.25;;;;;;;7.28;100.00;100641.81;6221296;22;20013;-79
2022/12/22 14:11:50;;;;;;;21.02;13.60;;;;;;;7.30;100.00;100644.78;6251951;22;20017;-76
2022/12/22 14:14:23;;;;;;;22.60;13.48;;;;;;;7.30;100.00;100629.63;6225120;22;20047;-76
2022/12/22 14:16:51;;;;;;;24.42;13.98;;;;;;;7.33;100.00;100631.44;6251881;22;20071;-76
2022/12/22 14:19:19;;;;;;;23.85;12.90;;;;;;;7.32;100.00;100626.56;6251655;22;20023;-76
2022/12/22 14:21:53;;;;;;;20.15;13.32;;;;;;;7.30;100.00;100620.94;6223811;22;20021;-75
2022/12/22 14:24:26;;;;;;;27.05;13.65;;;;;;;7.29;100.00;100619.44;6251436;22;20013;-78
2022/12/22 14:26:56;;;;;;;23.48;15.00;;;;;;;7.30;100.00;100615.66;6251989;22;20019;-77
2022/12/22 14:29:26;;;;;;;26.70;15.15;;;;;;;7.29;100.00;100620.19;6251169;22;20359;-78
2022/12/22 14:31:58;;;;;;;27.98;14.52;;;;;;;7.29;100.00;100622.09;6224700;22;20021;-78
2022/12/22 14:34:30;;;;;;;26.38;15.15;;;;;;;7.29;100.00;100614.91;6250780;22;20017;-76
2022/12/22 14:36:57;;;;;;;24.70;14.20;;;;;;;7.27;100.00;100613.84;6250264;22;20048;-79
2022/12/22 14:39:26;;;;;;;25.63;15.02;;;;;;;7.29;100.00;100614.16;6223822;22;20055;-80
2022/12/22 14:41:56;;;;;;;25.15;15.60;;;;;;;7.29;100.00;100608.88;6251469;22;20021;-76
2022/12/22 14:44:41;;;;;;;27.58;14.52;;;;;;;7.30;100.00;100613.75;6224242;22;20020;-80
2022/12/22 14:47:16;;;;;;;28.75;15.63;;;;;;;7.30;100.00;100602.41;6224490;22;20013;-79
2022/12/22 14:49:56;;;;;;;23.38;14.88;;;;;;;7.28;100.00;100599.44;6250916;22;20009;-79
2022/12/22 14:52:27;;;;;;;26.85;15.80;;;;;;;7.27;100.00;100603.25;6251380;22;20024;-77
2022/12/22 14:54:54;;;;;;;25.95;15.57;;;;;;;7.29;100.00;100596.38;6223784;22;20016;-77
2022/12/22 14:57:35;;;;;;;26.27;15.38;;;;;;;7.31;100.00;100595.94;6224246;22;20044;-77
2022/12/22 15:00:20;;;;;;;30.67;15.07;;;;;;;7.32;100.00;100584.94;6251463;22;20013;-77
2022/12/22 15:02:53;;;;;;;25.38;15.20;;;;;;;7.30;100.00;100584.63;6251261;22;20407;-77
2022/12/22 15:05:36;;;;;;;30.02;15.95;;;;;;;7.30;100.00;100578.56;6251029;22;20091;-77
2022/12/22 15:08:04;;;;;;;28.33;15.48;;;;;;;7.29;100.00;100587.69;6224319;22;20115;-76
2022/12/22 15:10:41;;;;;;;24.65;15.38;;;;;;;7.29;100.00;100583.13;6251221;22;20505;-77
2022/12/22 15:13:17;;;;;;;24.08;15.30;;;;;;;7.29;100.00;100580.47;6250007;22;20024;-78
2022/12/22 15:15:44;;;;;;;25.30;15.68;;;;;;;7.30;100.00;100570.63;6249849;22;20278;-80
2022/12/22 15:18:13;;;;;;;23.58;16.15;;;;;;;7.30;100.00;100574.03;6249672;22;20442;-79
2022/12/22 15:20:40;;;;;;;24.33;15.50;;;;;;;7.30;100.00;100578.56;6248651;22;20013;-81